sensor_id;sensor_type;location;lat;lon;timestamp;temperature;humidity
16976;DHT22;8604;48.148;-1.786;2023-05-23T00:00:06;14.40;99.90
16976;DHT22;8604;48.148;-1.786;2023-05-23T00:02:38;14.40;99.90
16976;DHT22;8604;48.148;-1.786;2023-05-23T00:05:07;14.40;99.90
16976;DHT22;8604;48.148;-1.786;2023-05-23T00:07:36;14.40;99.90
16976;DHT22;8604;48.148;-1.786;2023-05-23T00:10:05;14.40;99.90
16976;DHT22;8604;48.148;-1.786;2023-05-23T00:12:34;14.40;99.90
16976;DHT22;8604;48.148;-1.786;2023-05-23T00:15:04;14.40;99.90
16976;DHT22;8604;48.148;-1.786;2023-05-23T00:17:35;14.50;99.90
16976;DHT22;8604;48.148;-1.786;2023-05-23T00:20:05;14.40;99.90
16976;DHT22;8604;48.148;-1.786;2023-05-23T00:22:37;14.40;99.90
16976;DHT22;8604;48.148;-1.786;2023-05-23T00:25:09;14.40;99.90
16976;DHT22;8604;48.148;-1.786;2023-05-23T00:27:37;14.50;99.90
16976;DHT22;8604;48.148;-1.786;2023-05-23T00:30:07;14.40;99.90
16976;DHT22;8604;48.148;-1.786;2023-05-23T00:32:35;14.40;99.90
16976;DHT22;8604;48.148;-1.786;2023-05-23T00:35:04;14.40;99.90
16976;DHT22;8604;48.148;-1.786;2023-05-23T00:37:33;14.40;99.90
16976;DHT22;8604;48.148;-1.786;2023-05-23T00:40:04;14.40;99.90
16976;DHT22;8604;48.148;-1.786;2023-05-23T00:42:32;14.40;99.90
16976;DHT22;8604;48.148;-1.786;2023-05-23T00:45:01;14.30;99.90
16976;DHT22;8604;48.148;-1.786;2023-05-23T00:47:29;14.30;99.90
16976;DHT22;8604;48.148;-1.786;2023-05-23T00:49:58;14.30;99.90
16976;DHT22;8604;48.148;-1.786;2023-05-23T00:52:27;14.30;99.90
16976;DHT22;8604;48.148;-1.786;2023-05-23T00:54:55;14.30;99.90
16976;DHT22;8604;48.148;-1.786;2023-05-23T00:57:25;14.30;99.90
16976;DHT22;8604;48.148;-1.786;2023-05-23T00:59:53;14.30;99.90
16976;DHT22;8604;48.148;-1.786;2023-05-23T01:02:22;14.20;99.90
16976;DHT22;8604;48.148;-1.786;2023-05-23T01:04:51;14.20;99.90
16976;DHT22;8604;48.148;-1.786;2023-05-23T01:07:21;14.20;99.90
16976;DHT22;8604;48.148;-1.786;2023-05-23T01:09:49;14.20;99.90
16976;DHT22;8604;48.148;-1.786;2023-05-23T01:12:27;14.20;99.90
16976;DHT22;8604;48.148;-1.786;2023-05-23T01:15:01;14.20;99.90
16976;DHT22;8604;48.148;-1.786;2023-05-23T01:17:37;14.10;99.90
16976;DHT22;8604;48.148;-1.786;2023-05-23T01:20:10;14.20;99.90
16976;DHT22;8604;48.148;-1.786;2023-05-23T01:25:46;14.20;99.90
16976;DHT22;8604;48.148;-1.786;2023-05-23T01:28:23;14.10;99.90
16976;DHT22;8604;48.148;-1.786;2023-05-23T01:30:57;14.20;99.90
16976;DHT22;8604;48.148;-1.786;2023-05-23T01:33:27;14.20;99.90
16976;DHT22;8604;48.148;-1.786;2023-05-23T01:35:59;14.20;99.90
16976;DHT22;8604;48.148;-1.786;2023-05-23T01:38:28;14.10;99.90
16976;DHT22;8604;48.148;-1.786;2023-05-23T01:40:57;14.00;99.90
16976;DHT22;8604;48.148;-1.786;2023-05-23T01:43:27;14.00;99.90
16976;DHT22;8604;48.148;-1.786;2023-05-23T01:45:56;13.90;99.90
16976;DHT22;8604;48.148;-1.786;2023-05-23T01:48:26;13.90;99.90
16976;DHT22;8604;48.148;-1.786;2023-05-23T01:50:57;13.90;99.90
16976;DHT22;8604;48.148;-1.786;2023-05-23T01:53:26;13.90;99.90
16976;DHT22;8604;48.148;-1.786;2023-05-23T01:55:57;13.90;99.90
16976;DHT22;8604;48.148;-1.786;2023-05-23T01:58:30;13.90;99.90
16976;DHT22;8604;48.148;-1.786;2023-05-23T02:00:59;13.80;99.90
16976;DHT22;8604;48.148;-1.786;2023-05-23T02:03:27;13.80;99.90
16976;DHT22;8604;48.148;-1.786;2023-05-23T02:05:56;13.80;99.90
16976;DHT22;8604;48.148;-1.786;2023-05-23T02:08:24;13.80;99.90
16976;DHT22;8604;48.148;-1.786;2023-05-23T02:10:52;13.80;99.90
16976;DHT22;8604;48.148;-1.786;2023-05-23T02:13:20;13.70;99.90
16976;DHT22;8604;48.148;-1.786;2023-05-23T02:15:50;13.70;99.90
16976;DHT22;8604;48.148;-1.786;2023-05-23T02:18:19;13.60;99.90
16976;DHT22;8604;48.148;-1.786;2023-05-23T02:20:49;13.60;99.90
16976;DHT22;8604;48.148;-1.786;2023-05-23T02:23:18;13.60;99.90
16976;DHT22;8604;48.148;-1.786;2023-05-23T02:25:46;13.60;99.90
16976;DHT22;8604;48.148;-1.786;2023-05-23T02:28:15;13.60;99.90
16976;DHT22;8604;48.148;-1.786;2023-05-23T02:30:43;13.60;99.90
16976;DHT22;8604;48.148;-1.786;2023-05-23T02:33:13;13.50;99.90
16976;DHT22;8604;48.148;-1.786;2023-05-23T02:35:42;13.60;99.90
16976;DHT22;8604;48.148;-1.786;2023-05-23T02:38:11;13.60;99.90
16976;DHT22;8604;48.148;-1.786;2023-05-23T02:40:40;13.60;99.90
16976;DHT22;8604;48.148;-1.786;2023-05-23T02:43:09;13.60;99.90
16976;DHT22;8604;48.148;-1.786;2023-05-23T02:45:37;13.60;99.90
16976;DHT22;8604;48.148;-1.786;2023-05-23T02:48:06;13.70;99.90
16976;DHT22;8604;48.148;-1.786;2023-05-23T02:50:36;13.70;99.90
16976;DHT22;8604;48.148;-1.786;2023-05-23T02:53:04;13.60;99.90
16976;DHT22;8604;48.148;-1.786;2023-05-23T02:55:32;13.70;99.90
16976;DHT22;8604;48.148;-1.786;2023-05-23T02:58:01;13.70;99.90
16976;DHT22;8604;48.148;-1.786;2023-05-23T03:00:31;13.70;99.90
16976;DHT22;8604;48.148;-1.786;2023-05-23T03:03:00;13.70;99.90
16976;DHT22;8604;48.148;-1.786;2023-05-23T03:05:28;13.80;99.90
16976;DHT22;8604;48.148;-1.786;2023-05-23T03:07:58;13.80;99.90
16976;DHT22;8604;48.148;-1.786;2023-05-23T03:10:27;13.70;99.90
16976;DHT22;8604;48.148;-1.786;2023-05-23T03:12:55;13.80;99.90
16976;DHT22;8604;48.148;-1.786;2023-05-23T03:15:23;13.80;99.90
16976;DHT22;8604;48.148;-1.786;2023-05-23T03:17:52;13.80;99.90
16976;DHT22;8604;48.148;-1.786;2023-05-23T03:20:20;13.80;99.90
16976;DHT22;8604;48.148;-1.786;2023-05-23T03:22:48;13.80;99.90
16976;DHT22;8604;48.148;-1.786;2023-05-23T03:25:18;13.90;99.90
16976;DHT22;8604;48.148;-1.786;2023-05-23T03:27:46;13.80;99.90
16976;DHT22;8604;48.148;-1.786;2023-05-23T03:30:15;13.90;99.90
16976;DHT22;8604;48.148;-1.786;2023-05-23T03:32:43;13.80;99.90
16976;DHT22;8604;48.148;-1.786;2023-05-23T03:35:12;13.90;99.90
16976;DHT22;8604;48.148;-1.786;2023-05-23T03:37:40;13.90;99.90
16976;DHT22;8604;48.148;-1.786;2023-05-23T03:40:09;14.00;99.90
16976;DHT22;8604;48.148;-1.786;2023-05-23T03:42:39;14.00;99.90
16976;DHT22;8604;48.148;-1.786;2023-05-23T03:45:09;14.00;99.90
16976;DHT22;8604;48.148;-1.786;2023-05-23T03:47:37;14.00;99.90
16976;DHT22;8604;48.148;-1.786;2023-05-23T03:50:07;14.00;99.90
16976;DHT22;8604;48.148;-1.786;2023-05-23T03:52:36;14.00;99.90
16976;DHT22;8604;48.148;-1.786;2023-05-23T03:55:05;14.00;99.90
16976;DHT22;8604;48.148;-1.786;2023-05-23T03:57:35;14.10;99.90
16976;DHT22;8604;48.148;-1.786;2023-05-23T04:00:06;14.10;99.90
16976;DHT22;8604;48.148;-1.786;2023-05-23T04:02:42;14.10;99.90
16976;DHT22;8604;48.148;-1.786;2023-05-23T04:05:15;14.10;99.90
16976;DHT22;8604;48.148;-1.786;2023-05-23T04:07:44;14.10;99.90
16976;DHT22;8604;48.148;-1.786;2023-05-23T04:10:14;14.10;99.90
16976;DHT22;8604;48.148;-1.786;2023-05-23T04:12:42;14.10;99.90
16976;DHT22;8604;48.148;-1.786;2023-05-23T04:15:16;14.10;99.90
16976;DHT22;8604;48.148;-1.786;2023-05-23T04:18:02;14.10;99.90
16976;DHT22;8604;48.148;-1.786;2023-05-23T04:20:31;14.10;99.90
16976;DHT22;8604;48.148;-1.786;2023-05-23T04:23:00;14.20;99.90
16976;DHT22;8604;48.148;-1.786;2023-05-23T04:25:30;14.10;99.90
16976;DHT22;8604;48.148;-1.786;2023-05-23T04:28:11;14.20;99.90
16976;DHT22;8604;48.148;-1.786;2023-05-23T04:30:41;14.20;99.90
16976;DHT22;8604;48.148;-1.786;2023-05-23T04:33:10;14.20;99.90
16976;DHT22;8604;48.148;-1.786;2023-05-23T04:35:39;14.20;99.90
16976;DHT22;8604;48.148;-1.786;2023-05-23T04:38:09;14.20;99.90
16976;DHT22;8604;48.148;-1.786;2023-05-23T04:40:39;14.30;99.90
16976;DHT22;8604;48.148;-1.786;2023-05-23T04:43:31;14.30;99.90
16976;DHT22;8604;48.148;-1.786;2023-05-23T04:46:19;14.30;99.90
16976;DHT22;8604;48.148;-1.786;2023-05-23T04:49:05;14.30;99.90
16976;DHT22;8604;48.148;-1.786;2023-05-23T04:51:33;14.30;99.90
16976;DHT22;8604;48.148;-1.786;2023-05-23T04:54:12;14.40;99.90
16976;DHT22;8604;48.148;-1.786;2023-05-23T04:56:40;14.40;99.90
16976;DHT22;8604;48.148;-1.786;2023-05-23T04:59:09;14.40;99.90
16976;DHT22;8604;48.148;-1.786;2023-05-23T05:01:40;14.40;99.90
16976;DHT22;8604;48.148;-1.786;2023-05-23T05:04:09;14.40;99.90
16976;DHT22;8604;48.148;-1.786;2023-05-23T05:06:39;14.40;99.90
16976;DHT22;8604;48.148;-1.786;2023-05-23T05:09:08;14.40;99.90
16976;DHT22;8604;48.148;-1.786;2023-05-23T05:11:37;14.50;99.90
16976;DHT22;8604;48.148;-1.786;2023-05-23T05:14:05;14.50;99.90
16976;DHT22;8604;48.148;-1.786;2023-05-23T05:16:35;14.50;99.90
16976;DHT22;8604;48.148;-1.786;2023-05-23T05:19:05;14.50;99.90
16976;DHT22;8604;48.148;-1.786;2023-05-23T05:21:33;14.50;99.90
16976;DHT22;8604;48.148;-1.786;2023-05-23T05:24:03;14.50;99.90
16976;DHT22;8604;48.148;-1.786;2023-05-23T05:26:31;14.50;99.90
16976;DHT22;8604;48.148;-1.786;2023-05-23T05:29:00;14.60;99.90
16976;DHT22;8604;48.148;-1.786;2023-05-23T05:31:29;14.50;99.90
16976;DHT22;8604;48.148;-1.786;2023-05-23T05:33:58;14.60;99.90
16976;DHT22;8604;48.148;-1.786;2023-05-23T05:36:28;14.60;99.90
16976;DHT22;8604;48.148;-1.786;2023-05-23T05:38:58;14.60;99.90
16976;DHT22;8604;48.148;-1.786;2023-05-23T05:41:27;14.60;99.90
16976;DHT22;8604;48.148;-1.786;2023-05-23T05:43:55;14.60;99.90
16976;DHT22;8604;48.148;-1.786;2023-05-23T05:54:44;14.60;99.90
16976;DHT22;8604;48.148;-1.786;2023-05-23T05:57:35;14.70;99.90
16976;DHT22;8604;48.148;-1.786;2023-05-23T06:00:35;14.60;99.90
16976;DHT22;8604;48.148;-1.786;2023-05-23T06:04:01;14.60;99.90
16976;DHT22;8604;48.148;-1.786;2023-05-23T06:07:44;14.70;99.90
16976;DHT22;8604;48.148;-1.786;2023-05-23T06:10:25;14.70;99.90
16976;DHT22;8604;48.148;-1.786;2023-05-23T06:13:04;14.70;99.90
16976;DHT22;8604;48.148;-1.786;2023-05-23T06:15:45;14.70;99.90
16976;DHT22;8604;48.148;-1.786;2023-05-23T06:18:36;14.80;99.90
16976;DHT22;8604;48.148;-1.786;2023-05-23T06:24:35;14.80;99.90
16976;DHT22;8604;48.148;-1.786;2023-05-23T06:27:16;14.90;99.90
16976;DHT22;8604;48.148;-1.786;2023-05-23T06:30:05;14.90;99.90
16976;DHT22;8604;48.148;-1.786;2023-05-23T06:35:56;14.90;99.90
16976;DHT22;8604;48.148;-1.786;2023-05-23T06:38:45;15.00;99.90
16976;DHT22;8604;48.148;-1.786;2023-05-23T06:41:37;14.90;99.90
16976;DHT22;8604;48.148;-1.786;2023-05-23T06:44:37;14.90;99.90
16976;DHT22;8604;48.148;-1.786;2023-05-23T06:47:14;15.00;99.90
16976;DHT22;8604;48.148;-1.786;2023-05-23T06:49:43;15.00;99.90
16976;DHT22;8604;48.148;-1.786;2023-05-23T06:52:11;15.00;99.90
16976;DHT22;8604;48.148;-1.786;2023-05-23T06:54:42;15.10;99.90
16976;DHT22;8604;48.148;-1.786;2023-05-23T06:57:11;15.10;99.90
16976;DHT22;8604;48.148;-1.786;2023-05-23T06:59:41;15.10;99.90
16976;DHT22;8604;48.148;-1.786;2023-05-23T07:02:12;15.10;99.90
16976;DHT22;8604;48.148;-1.786;2023-05-23T07:04:41;15.10;99.90
16976;DHT22;8604;48.148;-1.786;2023-05-23T07:07:16;15.10;99.90
16976;DHT22;8604;48.148;-1.786;2023-05-23T07:09:45;15.10;99.90
16976;DHT22;8604;48.148;-1.786;2023-05-23T07:12:17;15.20;99.90
16976;DHT22;8604;48.148;-1.786;2023-05-23T07:14:48;15.20;99.90
16976;DHT22;8604;48.148;-1.786;2023-05-23T07:17:18;15.30;99.90
16976;DHT22;8604;48.148;-1.786;2023-05-23T07:19:47;15.30;99.90
16976;DHT22;8604;48.148;-1.786;2023-05-23T07:22:16;15.40;99.90
16976;DHT22;8604;48.148;-1.786;2023-05-23T07:29:08;15.40;99.90
16976;DHT22;8604;48.148;-1.786;2023-05-23T07:31:39;15.40;99.90
16976;DHT22;8604;48.148;-1.786;2023-05-23T07:34:09;15.50;99.90
16976;DHT22;8604;48.148;-1.786;2023-05-23T07:37:00;15.50;99.90
16976;DHT22;8604;48.148;-1.786;2023-05-23T07:39:35;15.50;99.90
16976;DHT22;8604;48.148;-1.786;2023-05-23T07:42:04;15.60;99.90
16976;DHT22;8604;48.148;-1.786;2023-05-23T07:44:33;15.70;99.90
16976;DHT22;8604;48.148;-1.786;2023-05-23T07:47:04;15.80;99.90
16976;DHT22;8604;48.148;-1.786;2023-05-23T07:49:32;15.90;99.90
16976;DHT22;8604;48.148;-1.786;2023-05-23T07:52:02;16.00;99.90
16976;DHT22;8604;48.148;-1.786;2023-05-23T07:54:32;16.20;99.90
16976;DHT22;8604;48.148;-1.786;2023-05-23T07:57:02;16.30;99.90
16976;DHT22;8604;48.148;-1.786;2023-05-23T07:59:31;16.40;99.90
16976;DHT22;8604;48.148;-1.786;2023-05-23T08:01:59;16.50;99.90
16976;DHT22;8604;48.148;-1.786;2023-05-23T08:04:30;16.80;99.90
16976;DHT22;8604;48.148;-1.786;2023-05-23T08:07:01;17.20;99.90
16976;DHT22;8604;48.148;-1.786;2023-05-23T08:09:46;17.80;99.90
16976;DHT22;8604;48.148;-1.786;2023-05-23T08:12:17;18.30;99.90
16976;DHT22;8604;48.148;-1.786;2023-05-23T08:14:50;18.60;99.90
16976;DHT22;8604;48.148;-1.786;2023-05-23T08:17:22;19.00;99.90
16976;DHT22;8604;48.148;-1.786;2023-05-23T08:19:53;19.20;99.90
16976;DHT22;8604;48.148;-1.786;2023-05-23T08:22:24;19.20;99.90
16976;DHT22;8604;48.148;-1.786;2023-05-23T08:24:53;19.30;99.90
16976;DHT22;8604;48.148;-1.786;2023-05-23T08:27:22;19.20;99.90
16976;DHT22;8604;48.148;-1.786;2023-05-23T08:29:55;18.90;99.90
16976;DHT22;8604;48.148;-1.786;2023-05-23T08:32:24;18.70;99.90
16976;DHT22;8604;48.148;-1.786;2023-05-23T08:34:55;18.60;99.90
16976;DHT22;8604;48.148;-1.786;2023-05-23T08:37:23;18.60;99.90
16976;DHT22;8604;48.148;-1.786;2023-05-23T08:39:52;18.80;99.90
16976;DHT22;8604;48.148;-1.786;2023-05-23T08:42:37;19.10;99.90
16976;DHT22;8604;48.148;-1.786;2023-05-23T08:45:09;19.50;99.90
16976;DHT22;8604;48.148;-1.786;2023-05-23T08:47:40;19.70;99.90
16976;DHT22;8604;48.148;-1.786;2023-05-23T08:50:12;19.90;99.90
16976;DHT22;8604;48.148;-1.786;2023-05-23T08:52:43;20.10;99.90
16976;DHT22;8604;48.148;-1.786;2023-05-23T08:55:16;20.00;99.90
16976;DHT22;8604;48.148;-1.786;2023-05-23T08:57:45;19.80;99.90
16976;DHT22;8604;48.148;-1.786;2023-05-23T09:00:29;19.90;99.90
16976;DHT22;8604;48.148;-1.786;2023-05-23T09:03:01;20.10;99.90
16976;DHT22;8604;48.148;-1.786;2023-05-23T09:05:54;20.40;99.90
16976;DHT22;8604;48.148;-1.786;2023-05-23T09:08:23;20.50;99.90
16976;DHT22;8604;48.148;-1.786;2023-05-23T09:10:56;20.30;99.90
16976;DHT22;8604;48.148;-1.786;2023-05-23T09:13:25;20.20;99.90
16976;DHT22;8604;48.148;-1.786;2023-05-23T09:15:56;20.10;99.90
16976;DHT22;8604;48.148;-1.786;2023-05-23T09:18:33;19.90;99.90
16976;DHT22;8604;48.148;-1.786;2023-05-23T09:21:06;19.60;99.90
16976;DHT22;8604;48.148;-1.786;2023-05-23T09:23:40;19.40;99.90
16976;DHT22;8604;48.148;-1.786;2023-05-23T09:26:10;19.50;99.90
16976;DHT22;8604;48.148;-1.786;2023-05-23T09:28:41;19.60;99.90
16976;DHT22;8604;48.148;-1.786;2023-05-23T09:31:16;19.60;99.90
16976;DHT22;8604;48.148;-1.786;2023-05-23T09:33:46;19.40;99.90
16976;DHT22;8604;48.148;-1.786;2023-05-23T09:36:18;19.30;99.90
16976;DHT22;8604;48.148;-1.786;2023-05-23T09:38:47;19.60;99.90
16976;DHT22;8604;48.148;-1.786;2023-05-23T09:41:19;19.70;99.90
16976;DHT22;8604;48.148;-1.786;2023-05-23T09:43:51;19.60;99.90
16976;DHT22;8604;48.148;-1.786;2023-05-23T09:46:21;19.50;99.90
16976;DHT22;8604;48.148;-1.786;2023-05-23T09:48:50;19.40;99.90
16976;DHT22;8604;48.148;-1.786;2023-05-23T09:51:22;19.40;99.90
16976;DHT22;8604;48.148;-1.786;2023-05-23T09:53:51;19.40;99.90
16976;DHT22;8604;48.148;-1.786;2023-05-23T09:56:20;19.30;99.90
16976;DHT22;8604;48.148;-1.786;2023-05-23T09:58:50;19.20;99.90
16976;DHT22;8604;48.148;-1.786;2023-05-23T10:01:19;19.00;99.90
16976;DHT22;8604;48.148;-1.786;2023-05-23T10:03:51;18.90;99.90
16976;DHT22;8604;48.148;-1.786;2023-05-23T10:06:31;18.90;99.90
16976;DHT22;8604;48.148;-1.786;2023-05-23T10:09:03;18.90;99.90
16976;DHT22;8604;48.148;-1.786;2023-05-23T10:14:49;19.30;99.90
16976;DHT22;8604;48.148;-1.786;2023-05-23T10:17:25;19.70;99.90
16976;DHT22;8604;48.148;-1.786;2023-05-23T10:20:00;19.80;99.90
16976;DHT22;8604;48.148;-1.786;2023-05-23T10:22:32;19.80;99.90
16976;DHT22;8604;48.148;-1.786;2023-05-23T10:25:02;20.20;99.90
16976;DHT22;8604;48.148;-1.786;2023-05-23T10:27:31;20.20;99.90
16976;DHT22;8604;48.148;-1.786;2023-05-23T10:30:00;20.40;99.90
16976;DHT22;8604;48.148;-1.786;2023-05-23T10:32:31;21.20;99.90
16976;DHT22;8604;48.148;-1.786;2023-05-23T10:35:05;21.70;99.90
16976;DHT22;8604;48.148;-1.786;2023-05-23T10:37:39;21.50;99.90
16976;DHT22;8604;48.148;-1.786;2023-05-23T10:40:15;21.40;99.90
16976;DHT22;8604;48.148;-1.786;2023-05-23T10:42:51;21.30;99.90
16976;DHT22;8604;48.148;-1.786;2023-05-23T10:45:23;21.40;99.90
16976;DHT22;8604;48.148;-1.786;2023-05-23T10:47:52;21.80;99.90
16976;DHT22;8604;48.148;-1.786;2023-05-23T10:50:31;22.10;99.90
16976;DHT22;8604;48.148;-1.786;2023-05-23T10:53:04;22.30;99.90
16976;DHT22;8604;48.148;-1.786;2023-05-23T10:55:34;22.90;99.90
16976;DHT22;8604;48.148;-1.786;2023-05-23T10:58:11;23.10;99.90
16976;DHT22;8604;48.148;-1.786;2023-05-23T11:00:49;23.40;99.90
16976;DHT22;8604;48.148;-1.786;2023-05-23T11:03:19;24.10;99.90
16976;DHT22;8604;48.148;-1.786;2023-05-23T11:05:58;24.50;99.90
16976;DHT22;8604;48.148;-1.786;2023-05-23T11:08:38;24.70;99.90
16976;DHT22;8604;48.148;-1.786;2023-05-23T11:11:15;24.50;99.90
16976;DHT22;8604;48.148;-1.786;2023-05-23T11:13:54;24.00;99.90
16976;DHT22;8604;48.148;-1.786;2023-05-23T11:16:30;23.60;99.90
16976;DHT22;8604;48.148;-1.786;2023-05-23T11:19:27;23.10;99.90
16976;DHT22;8604;48.148;-1.786;2023-05-23T11:22:00;22.70;99.90
16976;DHT22;8604;48.148;-1.786;2023-05-23T11:24:49;22.70;99.90
16976;DHT22;8604;48.148;-1.786;2023-05-23T11:27:25;22.60;99.90
16976;DHT22;8604;48.148;-1.786;2023-05-23T11:29:58;22.40;99.90
16976;DHT22;8604;48.148;-1.786;2023-05-23T11:32:28;22.10;99.90
16976;DHT22;8604;48.148;-1.786;2023-05-23T11:35:01;21.90;99.90
16976;DHT22;8604;48.148;-1.786;2023-05-23T11:37:30;21.90;99.90
16976;DHT22;8604;48.148;-1.786;2023-05-23T11:40:23;21.80;99.90
16976;DHT22;8604;48.148;-1.786;2023-05-23T11:42:53;22.20;99.90
16976;DHT22;8604;48.148;-1.786;2023-05-23T11:45:22;22.90;99.90
16976;DHT22;8604;48.148;-1.786;2023-05-23T11:47:53;23.20;99.90
16976;DHT22;8604;48.148;-1.786;2023-05-23T11:50:32;23.20;99.90
16976;DHT22;8604;48.148;-1.786;2023-05-23T11:53:01;23.10;99.90
16976;DHT22;8604;48.148;-1.786;2023-05-23T11:55:31;23.00;99.90
16976;DHT22;8604;48.148;-1.786;2023-05-23T11:58:03;22.80;99.90
16976;DHT22;8604;48.148;-1.786;2023-05-23T12:00:32;22.60;99.90
16976;DHT22;8604;48.148;-1.786;2023-05-23T12:03:06;22.40;99.90
16976;DHT22;8604;48.148;-1.786;2023-05-23T12:05:35;22.30;99.90
16976;DHT22;8604;48.148;-1.786;2023-05-23T12:08:04;22.30;99.90
16976;DHT22;8604;48.148;-1.786;2023-05-23T12:10:34;22.30;99.90
16976;DHT22;8604;48.148;-1.786;2023-05-23T12:13:04;22.30;99.90
16976;DHT22;8604;48.148;-1.786;2023-05-23T12:15:38;22.30;99.90
16976;DHT22;8604;48.148;-1.786;2023-05-23T12:18:07;22.30;99.90
16976;DHT22;8604;48.148;-1.786;2023-05-23T12:20:36;22.20;99.90
16976;DHT22;8604;48.148;-1.786;2023-05-23T12:23:05;22.20;99.90
16976;DHT22;8604;48.148;-1.786;2023-05-23T12:25:39;22.20;99.90
16976;DHT22;8604;48.148;-1.786;2023-05-23T12:28:09;22.20;99.90
16976;DHT22;8604;48.148;-1.786;2023-05-23T12:30:40;22.30;99.90
16976;DHT22;8604;48.148;-1.786;2023-05-23T12:33:58;22.30;99.90
16976;DHT22;8604;48.148;-1.786;2023-05-23T12:36:37;22.30;99.90
16976;DHT22;8604;48.148;-1.786;2023-05-23T12:39:15;22.10;99.90
16976;DHT22;8604;48.148;-1.786;2023-05-23T12:41:45;22.00;99.90
16976;DHT22;8604;48.148;-1.786;2023-05-23T12:44:14;22.00;99.90
16976;DHT22;8604;48.148;-1.786;2023-05-23T12:46:56;22.10;99.90
16976;DHT22;8604;48.148;-1.786;2023-05-23T12:49:41;22.10;99.90
16976;DHT22;8604;48.148;-1.786;2023-05-23T12:52:14;22.30;99.90
16976;DHT22;8604;48.148;-1.786;2023-05-23T12:54:52;22.40;99.90
16976;DHT22;8604;48.148;-1.786;2023-05-23T12:57:38;22.50;99.90
16976;DHT22;8604;48.148;-1.786;2023-05-23T13:00:33;22.60;99.90
16976;DHT22;8604;48.148;-1.786;2023-05-23T13:03:02;22.70;99.90
16976;DHT22;8604;48.148;-1.786;2023-05-23T13:05:32;22.60;99.90
16976;DHT22;8604;48.148;-1.786;2023-05-23T13:08:26;22.80;99.90
16976;DHT22;8604;48.148;-1.786;2023-05-23T13:11:16;22.90;99.90
16976;DHT22;8604;48.148;-1.786;2023-05-23T13:14:42;22.90;99.90
16976;DHT22;8604;48.148;-1.786;2023-05-23T13:17:20;23.00;99.90
16976;DHT22;8604;48.148;-1.786;2023-05-23T13:19:52;22.90;99.90
16976;DHT22;8604;48.148;-1.786;2023-05-23T13:22:28;22.90;99.90
16976;DHT22;8604;48.148;-1.786;2023-05-23T13:25:08;23.00;99.90
16976;DHT22;8604;48.148;-1.786;2023-05-23T13:27:38;22.90;99.90
16976;DHT22;8604;48.148;-1.786;2023-05-23T13:30:09;23.00;99.90
16976;DHT22;8604;48.148;-1.786;2023-05-23T13:32:40;23.00;99.90
16976;DHT22;8604;48.148;-1.786;2023-05-23T13:35:10;23.00;99.90
16976;DHT22;8604;48.148;-1.786;2023-05-23T13:37:42;23.20;99.90
16976;DHT22;8604;48.148;-1.786;2023-05-23T13:40:19;23.30;99.90
16976;DHT22;8604;48.148;-1.786;2023-05-23T13:42:54;23.30;99.90
16976;DHT22;8604;48.148;-1.786;2023-05-23T13:45:26;23.30;99.90
16976;DHT22;8604;48.148;-1.786;2023-05-23T13:47:57;23.20;99.90
16976;DHT22;8604;48.148;-1.786;2023-05-23T13:50:29;23.30;99.90
16976;DHT22;8604;48.148;-1.786;2023-05-23T13:52:58;23.30;99.90
16976;DHT22;8604;48.148;-1.786;2023-05-23T13:55:27;23.30;99.90
16976;DHT22;8604;48.148;-1.786;2023-05-23T13:58:01;23.30;99.90
16976;DHT22;8604;48.148;-1.786;2023-05-23T14:00:34;23.20;99.90
16976;DHT22;8604;48.148;-1.786;2023-05-23T14:03:03;23.30;99.90
16976;DHT22;8604;48.148;-1.786;2023-05-23T14:05:32;23.00;99.90
16976;DHT22;8604;48.148;-1.786;2023-05-23T14:08:01;22.80;99.90
16976;DHT22;8604;48.148;-1.786;2023-05-23T14:10:30;22.70;99.90
16976;DHT22;8604;48.148;-1.786;2023-05-23T14:13:06;22.80;99.90
16976;DHT22;8604;48.148;-1.786;2023-05-23T14:15:39;22.80;99.90
16976;DHT22;8604;48.148;-1.786;2023-05-23T14:18:18;22.80;99.90
16976;DHT22;8604;48.148;-1.786;2023-05-23T14:20:46;22.60;99.90
16976;DHT22;8604;48.148;-1.786;2023-05-23T14:23:15;22.50;99.90
16976;DHT22;8604;48.148;-1.786;2023-05-23T14:25:44;22.40;99.90
16976;DHT22;8604;48.148;-1.786;2023-05-23T14:28:13;22.40;99.90
16976;DHT22;8604;48.148;-1.786;2023-05-23T14:30:54;22.40;99.90
16976;DHT22;8604;48.148;-1.786;2023-05-23T14:33:35;22.60;99.90
16976;DHT22;8604;48.148;-1.786;2023-05-23T14:36:04;22.70;99.90
16976;DHT22;8604;48.148;-1.786;2023-05-23T14:38:41;22.80;99.90
16976;DHT22;8604;48.148;-1.786;2023-05-23T14:41:18;22.90;99.90
16976;DHT22;8604;48.148;-1.786;2023-05-23T14:43:47;23.00;99.90
16976;DHT22;8604;48.148;-1.786;2023-05-23T14:46:20;23.10;99.90
16976;DHT22;8604;48.148;-1.786;2023-05-23T14:48:49;23.00;99.90
16976;DHT22;8604;48.148;-1.786;2023-05-23T14:51:20;23.00;99.90
16976;DHT22;8604;48.148;-1.786;2023-05-23T14:54:15;22.90;99.90
16976;DHT22;8604;48.148;-1.786;2023-05-23T14:56:43;22.90;99.90
16976;DHT22;8604;48.148;-1.786;2023-05-23T14:59:46;22.80;99.90
16976;DHT22;8604;48.148;-1.786;2023-05-23T15:03:00;22.80;99.90
16976;DHT22;8604;48.148;-1.786;2023-05-23T15:06:19;22.70;99.90
16976;DHT22;8604;48.148;-1.786;2023-05-23T15:08:49;22.70;99.90
16976;DHT22;8604;48.148;-1.786;2023-05-23T15:11:23;22.80;99.90
16976;DHT22;8604;48.148;-1.786;2023-05-23T15:13:53;22.70;99.90
16976;DHT22;8604;48.148;-1.786;2023-05-23T15:16:26;22.60;99.90
16976;DHT22;8604;48.148;-1.786;2023-05-23T15:19:03;22.40;99.90
16976;DHT22;8604;48.148;-1.786;2023-05-23T15:21:32;22.40;99.90
16976;DHT22;8604;48.148;-1.786;2023-05-23T15:24:01;22.30;99.90
16976;DHT22;8604;48.148;-1.786;2023-05-23T15:26:31;22.20;99.90
16976;DHT22;8604;48.148;-1.786;2023-05-23T15:29:00;22.20;99.90
16976;DHT22;8604;48.148;-1.786;2023-05-23T15:31:28;22.20;99.90
16976;DHT22;8604;48.148;-1.786;2023-05-23T15:33:57;22.10;99.90
16976;DHT22;8604;48.148;-1.786;2023-05-23T15:36:27;22.00;99.90
16976;DHT22;8604;48.148;-1.786;2023-05-23T15:38:56;22.00;99.90
16976;DHT22;8604;48.148;-1.786;2023-05-23T15:41:25;22.00;99.90
16976;DHT22;8604;48.148;-1.786;2023-05-23T15:43:55;22.00;99.90
16976;DHT22;8604;48.148;-1.786;2023-05-23T15:46:23;22.00;99.90
16976;DHT22;8604;48.148;-1.786;2023-05-23T15:48:52;22.00;99.90
16976;DHT22;8604;48.148;-1.786;2023-05-23T15:51:36;22.00;99.90
16976;DHT22;8604;48.148;-1.786;2023-05-23T15:54:13;21.80;99.90
16976;DHT22;8604;48.148;-1.786;2023-05-23T15:56:49;21.80;99.90
16976;DHT22;8604;48.148;-1.786;2023-05-23T15:59:40;21.70;99.90
16976;DHT22;8604;48.148;-1.786;2023-05-23T16:02:11;21.60;99.90
16976;DHT22;8604;48.148;-1.786;2023-05-23T16:04:48;21.60;99.90
16976;DHT22;8604;48.148;-1.786;2023-05-23T16:08:03;21.50;99.90
16976;DHT22;8604;48.148;-1.786;2023-05-23T16:10:35;21.40;99.90
16976;DHT22;8604;48.148;-1.786;2023-05-23T16:13:05;21.40;99.90
16976;DHT22;8604;48.148;-1.786;2023-05-23T16:15:46;21.50;99.90
16976;DHT22;8604;48.148;-1.786;2023-05-23T16:18:36;21.40;99.90
16976;DHT22;8604;48.148;-1.786;2023-05-23T16:21:29;21.40;99.90
16976;DHT22;8604;48.148;-1.786;2023-05-23T16:25:18;21.30;99.90
16976;DHT22;8604;48.148;-1.786;2023-05-23T16:28:16;21.10;99.90
16976;DHT22;8604;48.148;-1.786;2023-05-23T16:30:49;20.90;99.90
16976;DHT22;8604;48.148;-1.786;2023-05-23T16:33:18;20.70;99.90
16976;DHT22;8604;48.148;-1.786;2023-05-23T16:36:00;20.50;99.90